Time;durP1;ratioP1;P1;durP2;ratioP2;P2;SDS_P1;SDS_P2;PMS_P1;PMS_P2;Temp;Humidity;BMP_temperature;BMP_pressure;BME280_temperature;BME280_humidity;BME280_pressure;Samples;Min_cycle;Max_cycle;Signal;HPM_P1;HPM_P2
2023/01/06 00:02:02;;;;;;;41.25;23.13;;;26.40;99.90;;;;;;5016644;28;20030;-67
2023/01/06 00:04:29;;;;;;;40.45;23.60;;;26.40;99.90;;;;;;5016235;28;20026;-68
2023/01/06 00:06:55;;;;;;;44.03;20.23;;;26.50;99.90;;;;;;5016352;28;20029;-66
2023/01/06 00:09:22;;;;;;;37.95;19.88;;;26.40;99.90;;;;;;5016435;28;20018;-67
2023/01/06 00:11:48;;;;;;;35.55;19.70;;;26.50;99.90;;;;;;5016377;28;20025;-67
2023/01/06 00:14:15;;;;;;;32.33;20.95;;;26.30;99.90;;;;;;5016243;28;20022;-66
2023/01/06 00:16:41;;;;;;;49.35;19.75;;;26.40;99.90;;;;;;5016252;28;20014;-67
2023/01/06 00:19:10;;;;;;;33.17;21.58;;;26.50;99.90;;;;;;5015971;28;20383;-66
2023/01/06 00:21:37;;;;;;;31.77;20.83;;;26.40;99.90;;;;;;5015955;28;20109;-66
2023/01/06 00:24:03;;;;;;;33.42;20.42;;;26.40;99.90;;;;;;5015990;28;20030;-66
2023/01/06 00:26:30;;;;;;;36.60;22.80;;;26.50;99.90;;;;;;5015875;28;20479;-66
2023/01/06 00:28:56;;;;;;;31.45;20.30;;;26.50;99.90;;;;;;5015960;28;20040;-67
2023/01/06 00:31:23;;;;;;;32.97;20.23;;;26.40;99.90;;;;;;5016097;28;20025;-66
2023/01/06 00:33:49;;;;;;;27.95;18.23;;;26.50;99.90;;;;;;5015083;28;20030;-66
2023/01/06 00:36:16;;;;;;;25.23;17.40;;;26.40;99.90;;;;;;5015795;28;20040;-67
2023/01/06 00:38:43;;;;;;;30.13;18.77;;;26.40;99.90;;;;;;5015513;28;20045;-67
2023/01/06 00:43:59;;;;;;;32.53;20.10;;;26.40;99.90;;;;;;5015613;28;20075;-65
2023/01/06 00:46:27;;;;;;;58.22;39.85;;;26.20;99.90;;;;;;5015613;28;20026;-65
2023/01/06 00:48:57;;;;;;;66.10;49.38;;;26.30;99.90;;;;;;5015626;28;20109;-66
2023/01/06 00:51:24;;;;;;;55.72;37.60;;;26.30;99.90;;;;;;5015578;28;20033;-65
2023/01/06 00:53:50;;;;;;;33.90;23.48;;;26.40;99.90;;;;;;5015450;28;20018;-66
2023/01/06 00:56:17;;;;;;;46.58;27.25;;;26.20;99.90;;;;;;5015282;28;20033;-66
2023/01/06 00:58:44;;;;;;;35.17;23.40;;;26.40;99.90;;;;;;5015211;28;20119;-66
2023/01/06 01:01:11;;;;;;;35.65;25.15;;;26.20;99.90;;;;;;5015145;28;20054;-64
2023/01/06 01:03:38;;;;;;;35.58;21.75;;;26.20;99.90;;;;;;5015252;28;20053;-65
2023/01/06 01:06:07;;;;;;;27.85;19.75;;;26.10;99.90;;;;;;5015452;28;20037;-66
2023/01/06 01:08:34;;;;;;;30.48;20.02;;;26.00;99.90;;;;;;5015048;28;20030;-65
2023/01/06 01:12:08;;;;;;;26.48;19.70;;;25.90;99.90;;;;;;5015477;28;20021;-65
2023/01/06 01:13:58;;;;;;;24.20;16.00;;;26.20;99.90;;;;;;5014916;28;20030;-65
2023/01/06 01:16:25;;;;;;;20.20;14.75;;;26.00;99.90;;;;;;5015125;28;20028;-66
2023/01/06 01:18:51;;;;;;;28.30;15.63;;;26.10;99.90;;;;;;5014952;28;20109;-66
2023/01/06 01:21:18;;;;;;;21.55;15.98;;;25.90;99.90;;;;;;5014793;28;20024;-66
2023/01/06 01:23:44;;;;;;;20.27;15.07;;;25.90;99.90;;;;;;5014882;28;20379;-67
2023/01/06 01:26:11;;;;;;;20.67;13.68;;;25.90;99.90;;;;;;5014884;28;20535;-68
2023/01/06 01:28:37;;;;;;;20.73;14.23;;;26.00;99.90;;;;;;5014462;28;20112;-65
2023/01/06 01:31:04;;;;;;;17.13;14.45;;;26.00;99.90;;;;;;5014838;28;20021;-64
2023/01/06 01:33:32;;;;;;;26.83;16.90;;;26.00;99.90;;;;;;5014664;28;20030;-65
2023/01/06 01:38:32;;;;;;;25.23;18.60;;;26.00;99.90;;;;;;5033485;28;20069;-65
2023/01/06 01:40:59;;;;;;;24.00;16.40;;;25.90;99.90;;;;;;5034245;28;20470;-65
2023/01/06 01:43:41;;;;;;;34.85;26.63;;;26.00;99.90;;;;;;5033610;28;20466;-65
2023/01/06 01:46:08;;;;;;;35.60;24.38;;;25.80;99.90;;;;;;5034051;28;20496;-66
2023/01/06 01:48:36;;;;;;;20.80;15.18;;;25.80;99.90;;;;;;5033875;28;20041;-66
2023/01/06 01:51:06;;;;;;;17.48;13.68;;;25.80;99.90;;;;;;5034308;28;20423;-66
2023/01/06 01:53:37;;;;;;;22.48;14.88;;;25.80;99.90;;;;;;5034195;28;20056;-65
2023/01/06 01:56:08;;;;;;;44.33;29.85;;;25.90;99.90;;;;;;5034244;28;20025;-66
2023/01/06 01:58:48;;;;;;;62.03;46.65;;;25.90;99.90;;;;;;5031865;28;20034;-65
2023/01/06 02:01:14;;;;;;;17.77;14.35;;;26.20;99.90;;;;;;5030730;28;20030;-65
2023/01/06 02:03:42;;;;;;;19.00;12.70;;;26.10;99.90;;;;;;5013600;28;20423;-66
2023/01/06 02:06:15;;;;;;;18.10;13.50;;;25.90;99.90;;;;;;5014351;28;20018;-66
2023/01/06 02:09:06;;;;;;;26.42;19.70;;;25.90;99.90;;;;;;5014288;28;20026;-65
2023/01/06 02:11:35;;;;;;;24.48;15.40;;;26.10;99.90;;;;;;5014165;28;20022;-66
2023/01/06 02:14:12;;;;;;;19.10;14.68;;;26.20;99.90;;;;;;5014342;28;20049;-66
2023/01/06 02:17:14;;;;;;;18.45;14.38;;;26.10;99.90;;;;;;5013976;28;20048;-66
2023/01/06 02:20:21;;;;;;;22.20;15.80;;;26.00;99.90;;;;;;4954063;29;20043;-67
2023/01/06 02:23:00;;;;;;;22.63;15.50;;;26.20;99.90;;;;;;4953637;29;20031;-67
2023/01/06 02:25:45;;;;;;;20.67;14.55;;;26.40;99.90;;;;;;4953459;29;20531;-67
2023/01/06 02:28:31;;;;;;;20.25;16.35;;;26.30;99.90;;;;;;4953428;29;20046;-67
2023/01/06 02:31:28;;;;;;;15.63;13.93;;;26.50;99.90;;;;;;4953723;29;20043;-67
2023/01/06 02:34:25;;;;;;;19.20;15.52;;;26.50;99.90;;;;;;4953279;29;20027;-67
2023/01/06 02:36:59;;;;;;;17.90;15.05;;;26.70;99.90;;;;;;4953418;29;20043;-65
2023/01/06 02:39:27;;;;;;;20.27;15.60;;;26.80;99.90;;;;;;4953843;29;20027;-66
2023/01/06 02:42:13;;;;;;;18.70;13.85;;;26.60;99.90;;;;;;4953805;29;20110;-67
2023/01/06 02:44:54;;;;;;;18.20;13.73;;;26.80;99.90;;;;;;4953231;29;20043;-66
2023/01/06 02:47:25;;;;;;;17.17;13.40;;;26.60;99.90;;;;;;4953137;29;20496;-66
2023/01/06 02:50:09;;;;;;;19.92;14.15;;;27.00;99.90;;;;;;4953087;29;20504;-66
2023/01/06 02:52:39;;;;;;;15.70;13.68;;;26.90;99.90;;;;;;4953163;29;20593;-65
2023/01/06 02:55:26;;;;;;;16.85;12.73;;;27.00;99.90;;;;;;4953414;28;20027;-66
2023/01/06 02:58:07;;;;;;;22.92;14.60;;;27.10;99.90;;;;;;4997818;28;20172;-66
2023/01/06 03:00:39;;;;;;;15.13;12.23;;;27.30;99.90;;;;;;4997893;28;20472;-66
2023/01/06 03:03:12;;;;;;;23.73;14.23;;;27.40;99.90;;;;;;5000428;28;20034;-68
2023/01/06 03:05:40;;;;;;;18.90;12.77;;;27.50;99.90;;;;;;5008843;28;20022;-69
2023/01/06 03:08:14;;;;;;;15.48;12.07;;;27.50;99.90;;;;;;5021912;28;20029;-69
2023/01/06 03:10:44;;;;;;;11.68;9.80;;;27.60;99.90;;;;;;5020873;28;20024;-68
2023/01/06 03:13:20;;;;;;;14.70;9.60;;;27.60;99.90;;;;;;5017497;28;20097;-68
2023/01/06 03:15:46;;;;;;;14.65;9.18;;;27.70;99.90;;;;;;5017351;28;20432;-67
2023/01/06 03:18:13;;;;;;;18.42;10.77;;;27.70;99.90;;;;;;5017412;28;20060;-68
2023/01/06 03:20:39;;;;;;;14.13;10.13;;;27.70;99.90;;;;;;5011351;28;20406;-68
2023/01/06 03:23:06;;;;;;;16.70;9.85;;;27.90;99.90;;;;;;5001403;28;20036;-69
2023/01/06 03:25:33;;;;;;;14.88;9.90;;;27.70;99.90;;;;;;4999183;28;20054;-66
2023/01/06 03:27:59;;;;;;;9.73;8.48;;;27.90;99.90;;;;;;5022666;28;20542;-65
2023/01/06 03:30:36;;;;;;;14.30;10.73;;;27.90;99.90;;;;;;5027288;28;20097;-66
2023/01/06 03:33:09;;;;;;;16.38;9.55;;;27.90;99.90;;;;;;5022612;28;20108;-67
2023/01/06 03:35:55;;;;;;;9.57;8.40;;;28.00;99.90;;;;;;5026190;28;20020;-68
2023/01/06 03:38:31;;;;;;;12.15;9.20;;;28.10;99.90;;;;;;4964401;28;20101;-67
2023/01/06 03:41:07;;;;;;;11.45;8.70;;;28.10;99.90;;;;;;4965351;28;20501;-67
2023/01/06 03:43:45;;;;;;;16.58;9.38;;;28.10;99.90;;;;;;4964770;28;20114;-67
2023/01/06 03:46:12;;;;;;;14.32;9.75;;;28.20;99.90;;;;;;4964566;28;20090;-67
2023/01/06 03:48:46;;;;;;;13.68;9.75;;;28.40;99.90;;;;;;4964714;28;20472;-67
2023/01/06 03:51:37;;;;;;;14.55;10.38;;;28.30;99.90;;;;;;4965405;28;20042;-67
2023/01/06 03:54:13;;;;;;;12.77;9.48;;;28.40;99.90;;;;;;4965626;28;20035;-67
2023/01/06 03:56:46;;;;;;;11.10;9.52;;;28.40;99.90;;;;;;4965087;28;20019;-67
2023/01/06 03:59:18;;;;;;;11.93;9.35;;;28.40;99.90;;;;;;4964533;28;20082;-67
2023/01/06 04:01:45;;;;;;;14.95;10.40;;;28.40;99.90;;;;;;4964075;28;20043;-68
2023/01/06 04:04:12;;;;;;;14.18;10.43;;;28.40;99.90;;;;;;4963029;28;20098;-68
2023/01/06 04:06:38;;;;;;;14.70;9.20;;;28.50;99.90;;;;;;4963754;28;20113;-67
2023/01/06 04:09:05;;;;;;;10.48;8.93;;;28.60;99.90;;;;;;4997812;28;20483;-69
2023/01/06 04:14:18;;;;;;;13.15;9.18;;;28.70;99.90;;;;;;5020686;28;20105;-67
2023/01/06 04:16:44;;;;;;;13.32;9.18;;;28.70;99.90;;;;;;5016073;28;20105;-67
2023/01/06 04:19:11;;;;;;;13.65;9.55;;;28.80;99.90;;;;;;5015961;28;20088;-68
2023/01/06 04:21:37;;;;;;;11.45;8.63;;;28.90;99.90;;;;;;5016314;28;20026;-65
2023/01/06 04:24:04;;;;;;;15.25;9.27;;;28.90;99.90;;;;;;5026428;28;20087;-67
2023/01/06 04:26:32;;;;;;;14.38;8.38;;;29.00;99.90;;;;;;5027423;28;20390;-65
2023/01/06 04:29:00;;;;;;;12.75;8.63;;;29.10;99.90;;;;;;5026275;28;20021;-68
2023/01/06 04:31:27;;;;;;;13.27;8.32;;;29.20;99.90;;;;;;5026823;28;20451;-65
2023/01/06 04:33:53;;;;;;;13.65;10.10;;;29.30;99.90;;;;;;5026469;28;20075;-67
2023/01/06 04:36:20;;;;;;;12.93;8.90;;;29.30;99.90;;;;;;5025680;28;20146;-67
2023/01/06 04:38:46;;;;;;;17.40;10.13;;;29.40;99.90;;;;;;5025494;28;20040;-67
2023/01/06 04:41:13;;;;;;;13.63;8.60;;;29.40;99.90;;;;;;5024911;28;20040;-67
2023/01/06 04:43:39;;;;;;;12.82;7.97;;;29.50;99.90;;;;;;5021743;28;20022;-67
2023/01/06 04:46:06;;;;;;;11.82;8.00;;;29.60;99.90;;;;;;5021895;28;20483;-65
2023/01/06 04:48:33;;;;;;;10.80;8.18;;;29.70;99.90;;;;;;5022388;28;20778;-66
2023/01/06 04:51:04;;;;;;;13.35;8.38;;;29.70;99.90;;;;;;5021904;28;20149;-67
2023/01/06 04:53:37;;;;;;;11.98;8.27;;;29.70;99.90;;;;;;5023363;28;20375;-67
2023/01/06 04:56:06;;;;;;;24.10;16.33;;;29.70;99.90;;;;;;5002905;28;20108;-66
2023/01/06 04:58:34;;;;;;;18.10;11.85;;;29.90;99.90;;;;;;5020820;28;20084;-66
2023/01/06 05:01:01;;;;;;;13.55;9.38;;;30.00;99.90;;;;;;5020885;28;20102;-65
2023/01/06 05:03:28;;;;;;;16.58;10.15;;;30.10;99.90;;;;;;5024698;28;20173;-67
2023/01/06 05:05:54;;;;;;;13.57;8.90;;;30.10;99.90;;;;;;5025363;28;20097;-66
2023/01/06 05:08:21;;;;;;;12.30;8.38;;;30.20;99.90;;;;;;5023368;28;20022;-67
2023/01/06 05:10:47;;;;;;;13.52;9.77;;;30.30;99.90;;;;;;5024359;28;20021;-67
2023/01/06 05:13:14;;;;;;;12.95;9.88;;;30.30;99.90;;;;;;5025063;28;20475;-67
2023/01/06 05:15:40;;;;;;;10.85;9.25;;;30.30;99.90;;;;;;4995552;28;20109;-66
2023/01/06 05:18:07;;;;;;;14.07;8.40;;;30.40;99.90;;;;;;4995383;28;20387;-66
2023/01/06 05:20:33;;;;;;;12.05;8.77;;;30.40;99.90;;;;;;4995587;28;20061;-66
2023/01/06 05:23:00;;;;;;;11.30;8.57;;;30.40;99.90;;;;;;4995264;28;20022;-65
2023/01/06 05:25:26;;;;;;;13.75;10.13;;;30.40;99.90;;;;;;4995422;28;20041;-67
2023/01/06 05:27:53;;;;;;;10.00;8.32;;;30.50;99.90;;;;;;4995155;28;20464;-65
2023/01/06 05:30:19;;;;;;;13.85;9.60;;;30.70;99.90;;;;;;4995252;28;20026;-65
2023/01/06 05:32:46;;;;;;;12.27;9.23;;;30.90;99.90;;;;;;4995242;28;20061;-66
2023/01/06 05:35:12;;;;;;;13.02;9.70;;;30.90;99.90;;;;;;4995316;28;20025;-66
2023/01/06 05:37:39;;;;;;;12.55;9.10;;;31.00;99.90;;;;;;4994909;28;20054;-65
2023/01/06 05:40:06;;;;;;;10.00;8.95;;;30.90;99.90;;;;;;4995018;28;20034;-66
2023/01/06 05:42:32;;;;;;;12.38;8.93;;;31.10;99.90;;;;;;4994971;28;20069;-66
2023/01/06 05:44:59;;;;;;;12.68;9.63;;;31.00;99.90;;;;;;4995266;28;20485;-65
2023/01/06 05:47:25;;;;;;;11.82;10.15;;;31.00;99.90;;;;;;4995502;28;20480;-65
2023/01/06 05:49:52;;;;;;;15.13;10.20;;;31.00;99.90;;;;;;4996108;28;20103;-66
2023/01/06 05:52:18;;;;;;;12.60;10.60;;;31.20;99.90;;;;;;5008214;28;20548;-66
2023/01/06 05:54:45;;;;;;;11.68;9.85;;;31.30;99.90;;;;;;5015427;28;20105;-66
2023/01/06 05:57:12;;;;;;;11.55;9.25;;;31.40;99.90;;;;;;5015408;28;20026;-66
2023/01/06 05:59:38;;;;;;;11.82;9.75;;;31.50;99.90;;;;;;5015102;28;20049;-66
2023/01/06 06:02:05;;;;;;;13.43;10.90;;;31.60;99.90;;;;;;5015153;28;20022;-66
2023/01/06 06:04:31;;;;;;;12.93;10.30;;;31.50;99.90;;;;;;5014861;28;20022;-66
2023/01/06 06:06:58;;;;;;;12.93;9.55;;;31.50;99.90;;;;;;5015244;28;20013;-66
2023/01/06 06:09:24;;;;;;;14.00;9.95;;;31.50;99.90;;;;;;5015583;28;20506;-68
2023/01/06 06:11:53;;;;;;;14.23;10.30;;;31.40;99.90;;;;;;5014765;28;20018;-68
2023/01/06 06:14:20;;;;;;;13.18;9.20;;;31.40;99.90;;;;;;5012879;28;20037;-67
2023/01/06 06:16:47;;;;;;;11.07;9.23;;;31.50;99.90;;;;;;5015533;28;20390;-67
2023/01/06 06:19:13;;;;;;;10.23;9.05;;;31.60;99.90;;;;;;5023344;28;20516;-67
2023/01/06 06:21:40;;;;;;;14.43;10.15;;;31.60;99.90;;;;;;5022817;28;20029;-67
2023/01/06 06:24:06;;;;;;;12.13;9.43;;;31.60;99.90;;;;;;5024796;28;20466;-68
2023/01/06 06:26:33;;;;;;;14.65;9.60;;;31.70;99.90;;;;;;5025323;28;20025;-67
2023/01/06 06:28:59;;;;;;;15.35;10.02;;;31.70;99.90;;;;;;5024785;28;20025;-66
2023/01/06 06:31:28;;;;;;;12.27;9.57;;;31.70;99.90;;;;;;5023336;28;20493;-68
2023/01/06 06:33:58;;;;;;;12.60;9.50;;;31.70;99.90;;;;;;5022901;28;20390;-66
2023/01/06 06:36:25;;;;;;;12.63;9.38;;;31.80;99.90;;;;;;5013090;28;20033;-67
2023/01/06 06:38:53;;;;;;;11.85;9.65;;;31.90;99.90;;;;;;5015026;28;20030;-66
2023/01/06 06:41:20;;;;;;;12.82;9.63;;;31.90;99.90;;;;;;5012904;28;20038;-67
2023/01/06 06:43:49;;;;;;;10.80;9.30;;;32.00;99.90;;;;;;5012891;28;20018;-67
2023/01/06 06:46:16;;;;;;;12.27;9.35;;;32.00;99.90;;;;;;5013702;28;20049;-67
2023/01/06 06:48:43;;;;;;;9.52;8.30;;;32.00;99.90;;;;;;5018582;28;20383;-68
2023/01/06 06:51:13;;;;;;;12.70;9.70;;;31.90;99.90;;;;;;5018898;28;20061;-67
2023/01/06 06:53:40;;;;;;;11.82;8.80;;;31.90;99.90;;;;;;5021070;28;20064;-68
2023/01/06 06:56:07;;;;;;;14.93;10.32;;;32.10;99.90;;;;;;5022072;28;20447;-67
2023/01/06 06:58:34;;;;;;;11.98;9.80;;;32.10;99.90;;;;;;5022431;28;20481;-64
2023/01/06 07:01:06;;;;;;;13.70;9.80;;;32.30;99.90;;;;;;5022083;28;20394;-64
2023/01/06 07:03:33;;;;;;;;;;;32.50;99.90;;;;;;5019569;28;20030;-66
2023/01/06 07:06:02;;;;;;;13.18;9.00;;;32.60;99.90;;;;;;5022207;28;19959;-66
2023/01/06 07:08:29;;;;;;;15.90;9.30;;;32.70;99.90;;;;;;5018862;28;20082;-65
2023/01/06 07:10:55;;;;;;;15.15;9.20;;;32.90;99.90;;;;;;5022372;28;20095;-67
2023/01/06 07:13:22;;;;;;;10.80;8.75;;;33.00;99.90;;;;;;5020723;28;20030;-66
2023/01/06 07:15:48;;;;;;;13.50;9.35;;;33.00;99.90;;;;;;5023238;28;20202;-65
2023/01/06 07:18:15;;;;;;;15.85;13.57;;;32.90;99.90;;;;;;5021364;28;20411;-66
2023/01/06 07:20:48;;;;;;;16.42;14.70;;;32.90;99.90;;;;;;5022013;28;20467;-66
2023/01/06 07:23:15;;;;;;;46.05;26.73;;;32.70;99.90;;;;;;5015199;28;20106;-65
2023/01/06 07:25:42;;;;;;;55.08;37.15;;;32.50;99.90;;;;;;5013005;28;20030;-67
2023/01/06 07:28:09;;;;;;;29.13;17.48;;;32.20;99.90;;;;;;5017168;28;20054;-64
2023/01/06 07:30:36;;;;;;;23.75;14.88;;;31.90;99.90;;;;;;5021281;28;20017;-65
2023/01/06 07:33:03;;;;;;;26.30;15.00;;;31.70;99.90;;;;;;5012807;28;20033;-66
2023/01/06 07:35:30;;;;;;;34.28;21.95;;;31.50;99.90;;;;;;5012996;28;20097;-66
2023/01/06 07:38:08;;;;;;;33.42;22.67;;;31.30;99.90;;;;;;5012223;28;20054;-67
2023/01/06 07:40:35;;;;;;;38.85;23.10;;;31.10;99.90;;;;;;5017690;28;20026;-66
2023/01/06 07:43:05;;;;;;;32.42;18.45;;;31.00;99.90;;;;;;5016101;28;20029;-65
2023/01/06 07:45:32;;;;;;;27.13;18.13;;;30.80;99.90;;;;;;5016211;28;20026;-64
2023/01/06 07:47:59;;;;;;;34.80;25.48;;;30.70;99.90;;;;;;5011069;28;20027;-65
2023/01/06 07:50:26;;;;;;;29.52;22.70;;;30.60;99.90;;;;;;5005671;28;20026;-66
2023/01/06 07:52:55;;;;;;;31.17;18.48;;;30.60;99.90;;;;;;4996986;28;20472;-65
2023/01/06 07:55:22;;;;;;;28.45;17.73;;;30.50;99.90;;;;;;4996651;28;20027;-67
2023/01/06 07:57:48;;;;;;;40.55;24.98;;;30.40;99.90;;;;;;4996648;28;20029;-66
2023/01/06 08:00:15;;;;;;;38.22;22.27;;;30.40;99.90;;;;;;5022585;28;20395;-66
2023/01/06 08:02:42;;;;;;;29.30;18.35;;;30.30;99.90;;;;;;5016761;28;20033;-66
2023/01/06 08:05:08;;;;;;;38.10;20.10;;;30.20;99.90;;;;;;5015448;28;20471;-66
2023/01/06 08:07:35;;;;;;;30.02;18.75;;;30.20;99.90;;;;;;5006726;28;20077;-66
2023/01/06 08:10:01;;;;;;;30.23;19.02;;;30.20;99.90;;;;;;5014774;28;20022;-66
2023/01/06 08:12:28;;;;;;;28.35;19.42;;;30.10;99.90;;;;;;5000586;28;20022;-65
2023/01/06 08:14:54;;;;;;;35.47;21.13;;;30.00;99.90;;;;;;5016168;28;20021;-66
2023/01/06 08:17:21;;;;;;;29.55;21.75;;;29.90;99.90;;;;;;5010178;28;20048;-66
2023/01/06 08:19:47;;;;;;;31.23;20.55;;;29.80;99.90;;;;;;4999983;28;20484;-67
2023/01/06 08:22:14;;;;;;;30.48;20.98;;;29.70;99.90;;;;;;4996733;28;20490;-67
2023/01/06 08:24:40;;;;;;;25.15;18.15;;;29.60;99.90;;;;;;4996762;28;20030;-67
2023/01/06 08:27:07;;;;;;;20.38;15.35;;;29.50;99.90;;;;;;4996525;28;20018;-66
2023/01/06 08:29:33;;;;;;;16.05;14.15;;;29.50;99.90;;;;;;4996639;28;20058;-67
2023/01/06 08:32:00;;;;;;;17.35;14.05;;;29.50;99.90;;;;;;4997199;28;20026;-66
2023/01/06 08:34:26;;;;;;;15.57;13.77;;;29.50;99.90;;;;;;4996639;28;20029;-67
2023/01/06 08:36:53;;;;;;;14.15;12.65;;;29.50;99.90;;;;;;4996138;28;20034;-66
2023/01/06 08:39:19;;;;;;;16.95;13.32;;;29.50;99.90;;;;;;4996509;28;20547;-66
2023/01/06 08:41:50;;;;;;;17.30;13.73;;;29.50;99.90;;;;;;4995630;28;20044;-67
2023/01/06 08:44:17;;;;;;;20.02;14.32;;;29.40;99.90;;;;;;4995308;28;20034;-65
2023/01/06 08:46:44;;;;;;;19.40;15.30;;;29.40;99.90;;;;;;4996273;28;20114;-66
2023/01/06 08:49:10;;;;;;;26.48;19.42;;;29.40;99.90;;;;;;5005554;28;20070;-65
2023/01/06 08:51:37;;;;;;;22.52;16.45;;;29.40;99.90;;;;;;4994904;28;20020;-66
2023/01/06 08:54:04;;;;;;;19.95;16.42;;;29.40;99.90;;;;;;4994264;28;20072;-65
2023/01/06 08:56:31;;;;;;;19.65;17.15;;;29.40;99.90;;;;;;4993914;28;20023;-65
2023/01/06 08:59:01;;;;;;;23.80;17.35;;;29.40;99.90;;;;;;4993557;28;20413;-66
2023/01/06 09:01:33;;;;;;;21.35;17.85;;;29.40;99.90;;;;;;4993592;28;20491;-66
2023/01/06 09:04:03;;;;;;;26.80;15.93;;;29.40;99.90;;;;;;4993419;28;20101;-66
2023/01/06 09:06:30;;;;;;;24.10;17.60;;;29.40;99.90;;;;;;4993684;28;20030;-66
2023/01/06 09:08:57;;;;;;;24.70;18.67;;;29.30;99.90;;;;;;4993598;28;20053;-67
2023/01/06 09:11:24;;;;;;;30.60;18.73;;;29.30;99.90;;;;;;4995283;28;20030;-72
2023/01/06 09:13:51;;;;;;;28.92;21.48;;;29.30;99.90;;;;;;4995379;28;20495;-69
2023/01/06 09:16:19;;;;;;;26.38;20.95;;;29.30;99.90;;;;;;5013785;28;20026;-68
2023/01/06 09:18:49;;;;;;;29.50;20.38;;;29.30;99.90;;;;;;5022784;28;20022;-66
2023/01/06 09:21:18;;;;;;;31.23;21.15;;;29.30;99.90;;;;;;5013674;28;20036;-65
2023/01/06 09:23:45;;;;;;;32.33;22.23;;;29.30;99.90;;;;;;5023311;28;20021;-66
2023/01/06 09:26:12;;;;;;;32.05;19.85;;;29.30;99.90;;;;;;5020075;28;20037;-67
2023/01/06 09:28:40;;;;;;;28.90;19.98;;;29.30;99.90;;;;;;5022148;28;20030;-67
2023/01/06 09:31:07;;;;;;;30.63;19.17;;;29.30;99.90;;;;;;5023406;28;20032;-66
2023/01/06 09:33:52;;;;;;;26.63;18.13;;;29.30;99.90;;;;;;5024083;28;20052;-65
2023/01/06 09:36:19;;;;;;;27.88;18.25;;;29.30;99.90;;;;;;5022109;28;20025;-64
2023/01/06 09:38:45;;;;;;;27.40;16.50;;;29.30;99.90;;;;;;5024536;28;20037;-73
2023/01/06 09:41:23;;;;;;;29.13;17.58;;;29.40;99.90;;;;;;5022930;28;20024;-66
2023/01/06 09:44:09;;;;;;;33.40;23.85;;;29.30;99.90;;;;;;5022931;28;20018;-66
2023/01/06 09:46:40;;;;;;;25.90;18.85;;;29.40;99.90;;;;;;5022851;28;20155;-66
2023/01/06 09:49:20;;;;;;;26.63;16.88;;;29.30;99.90;;;;;;5022513;28;20037;-65
2023/01/06 09:51:47;;;;;;;28.08;20.80;;;29.20;99.90;;;;;;5018724;28;20018;-67
2023/01/06 09:54:20;;;;;;;45.28;31.27;;;29.20;99.90;;;;;;5021973;28;20028;-65
2023/01/06 09:56:53;;;;;;;41.88;23.90;;;29.10;99.90;;;;;;5020678;28;20021;-64
2023/01/06 09:59:43;;;;;;;29.42;20.33;;;29.20;99.90;;;;;;5021617;28;20037;-66
2023/01/06 10:02:22;;;;;;;23.67;18.98;;;29.20;99.90;;;;;;4942183;29;20420;-66
2023/01/06 10:04:48;;;;;;;30.15;20.98;;;29.30;99.90;;;;;;4942344;28;20043;-67
2023/01/06 10:07:41;;;;;;;30.35;21.40;;;29.30;99.90;;;;;;4941094;29;20039;-66
2023/01/06 10:10:36;;;;;;;28.98;21.92;;;29.20;99.90;;;;;;4942510;29;20107;-67
2023/01/06 10:13:26;;;;;;;29.33;19.85;;;29.20;99.90;;;;;;4943749;29;20023;-67
2023/01/06 10:16:13;;;;;;;25.45;18.45;;;29.10;99.90;;;;;;4941025;29;20035;-67
2023/01/06 10:18:44;;;;;;;29.05;20.45;;;29.10;99.90;;;;;;4875747;29;20040;-67
2023/01/06 10:21:28;;;;;;;29.33;21.95;;;29.00;99.90;;;;;;4876305;29;20105;-66
2023/01/06 10:24:02;;;;;;;30.30;21.95;;;29.00;99.90;;;;;;4878087;29;20064;-67
2023/01/06 10:26:31;;;;;;;35.70;24.23;;;29.00;99.90;;;;;;4877695;29;20107;-66
2023/01/06 10:29:09;;;;;;;29.55;22.20;;;28.90;99.90;;;;;;4877940;29;20055;-67
2023/01/06 10:31:42;;;;;;;34.20;23.58;;;28.90;99.90;;;;;;4877780;29;20197;-66
2023/01/06 10:34:20;;;;;;;45.38;24.13;;;28.90;99.90;;;;;;4877506;29;20021;-67
2023/01/06 10:37:08;;;;;;;31.85;24.23;;;29.00;99.90;;;;;;4876096;29;20110;-66
2023/01/06 10:39:37;;;;;;;33.15;25.90;;;29.00;99.90;;;;;;4876896;29;20049;-67
2023/01/06 10:45:09;;;;;;;;;;;28.90;99.90;;;;;;4891669;29;20115;-67
2023/01/06 10:47:41;;;;;;;50.88;32.83;;;28.90;99.90;;;;;;4931143;29;19965;-67
2023/01/06 10:50:14;;;;;;;45.57;30.63;;;28.90;99.90;;;;;;4930181;29;20096;-69
2023/01/06 10:52:42;;;;;;;48.30;31.23;;;28.90;99.90;;;;;;4931567;29;20047;-68
2023/01/06 10:55:31;;;;;;;45.10;31.65;;;28.90;99.90;;;;;;4931813;29;20031;-68
2023/01/06 10:58:20;;;;;;;46.67;29.92;;;28.90;99.90;;;;;;4931725;29;20035;-68
2023/01/06 11:00:58;;;;;;;43.13;27.15;;;28.90;99.90;;;;;;4911062;29;20482;-69
2023/01/06 11:03:26;;;;;;;39.38;24.75;;;28.90;99.90;;;;;;4911024;29;20128;-68
2023/01/06 11:06:06;;;;;;;34.50;24.92;;;28.90;99.90;;;;;;4912429;29;20028;-68
2023/01/06 11:08:35;;;;;;;42.55;25.45;;;28.80;99.90;;;;;;4911853;29;20068;-67
2023/01/06 11:11:07;;;;;;;48.58;29.10;;;28.80;99.90;;;;;;4907349;29;20045;-66
2023/01/06 11:13:36;;;;;;;65.68;44.13;;;28.70;99.90;;;;;;4912466;29;20391;-67
2023/01/06 11:16:16;;;;;;;82.50;51.90;;;28.70;99.90;;;;;;4912518;29;20595;-66
2023/01/06 11:18:43;;;;;;;58.22;40.47;;;28.70;99.90;;;;;;4916088;29;20118;-67
2023/01/06 11:21:12;;;;;;;524.70;390.48;;;28.70;99.90;;;;;;4942111;28;20042;-65
2023/01/06 11:23:41;;;;;;;107.43;64.10;;;28.60;99.90;;;;;;4989431;28;20030;-67
2023/01/06 11:26:19;;;;;;;81.78;54.03;;;28.60;99.90;;;;;;4989758;28;20027;-67
2023/01/06 11:28:48;;;;;;;231.48;146.75;;;28.60;99.90;;;;;;4989275;28;20089;-69
2023/01/06 11:31:14;;;;;;;132.85;83.32;;;;;;;;;;4989126;28;20050;-66
2023/01/06 11:33:51;;;;;;;111.65;73.85;;;;;;;;;;4979706;28;20031;-67
2023/01/06 11:36:18;;;;;;;69.68;52.45;;;;;;;;;;4978209;28;20109;-68
2023/01/06 11:38:48;;;;;;;45.30;30.52;;;;;;;;;;4977753;28;20131;-67
2023/01/06 11:41:22;;;;;;;45.08;28.20;;;;;;;;;;4977845;28;20129;-66
2023/01/06 11:43:48;;;;;;;42.85;28.75;;;;;;;;;;4977293;28;20487;-66
2023/01/06 11:46:15;;;;;;;45.67;31.00;;;;;;;;;;4981495;28;20031;-68
2023/01/06 11:48:58;;;;;;;58.35;39.65;;;;;;;;;;4986349;28;20030;-68
2023/01/06 11:51:46;;;;;;;68.90;46.97;;;;;;;;;;4986569;28;20022;-67
2023/01/06 11:54:24;;;;;;;75.72;46.40;;;;;;;;;;4986583;28;20034;-66
2023/01/06 11:57:10;;;;;;;47.42;29.27;;;;;;;;;;4986657;28;20411;-66
2023/01/06 11:59:45;;;;;;;45.40;28.83;;;;;;;;;;4985473;28;20463;-66
2023/01/06 12:02:15;;;;;;;41.67;27.33;;;;;;;;;;4978052;28;20031;-66
2023/01/06 12:04:46;;;;;;;40.72;25.63;;;;;;;;;;5023767;28;20036;-67
2023/01/06 12:07:21;;;;;;;35.67;25.08;;;;;;;;;;5020214;28;20527;-69
2023/01/06 12:09:49;;;;;;;44.97;27.25;;;;;;;;;;5021811;28;20032;-66
2023/01/06 12:12:20;;;;;;;39.80;26.02;;;;;;;;;;5026659;28;20033;-67
2023/01/06 12:14:47;;;;;;;44.42;28.10;;;;;;;;;;5025881;28;20029;-66
2023/01/06 12:17:13;;;;;;;43.97;29.02;;;;;;;;;;5026164;28;20112;-67
2023/01/06 12:19:49;;;;;;;46.40;29.42;;;;;;;;;;5025239;28;20030;-67
2023/01/06 12:22:35;;;;;;;41.03;29.02;;;;;;;;;;5023545;28;20538;-68
2023/01/06 12:25:03;;;;;;;46.20;32.20;;;;;;;;;;5021193;28;20453;-66
2023/01/06 12:27:42;;;;;;;49.78;33.88;;;;;;;;;;5019733;28;20026;-66
2023/01/06 12:30:15;;;;;;;49.45;33.90;;;;;;;;;;5026067;28;20032;-66
2023/01/06 12:32:43;;;;;;;59.28;36.08;;;;;;;;;;5024975;28;20375;-67
2023/01/06 12:35:14;;;;;;;59.83;40.42;;;;;;;;;;5022761;28;20030;-67
2023/01/06 12:37:44;;;;;;;63.17;39.28;;;;;;;;;;5022059;28;20099;-67
2023/01/06 12:40:21;;;;;;;52.22;33.25;;;;;;;;;;5022699;28;20033;-66
2023/01/06 12:42:50;;;;;;;55.45;37.50;;;;;;;;;;5022520;28;20022;-66
2023/01/06 12:45:20;;;;;;;69.15;40.10;;;;;;;;;;5021261;28;20486;-67
2023/01/06 12:47:49;;;;;;;69.57;40.13;;;;;;;;;;5020133;28;20434;-67
2023/01/06 12:50:26;;;;;;;53.92;33.70;;;;;;;;;;5020225;28;20025;-67
2023/01/06 12:52:58;;;;;;;44.90;30.92;;;;;;;;;;5025004;28;20079;-67
2023/01/06 12:55:31;;;;;;;49.53;31.15;;;;;;;;;;5026164;28;20021;-67
2023/01/06 12:58:11;;;;;;;48.00;33.13;;;;;;;;;;5025837;28;20049;-66
2023/01/06 13:00:38;;;;;;;51.65;28.35;;;;;;;;;;5019611;28;20041;-67
2023/01/06 13:03:25;;;;;;;40.20;24.98;;;;;;;;;;5019796;28;20382;-67
2023/01/06 13:06:00;;;;;;;34.47;24.40;;;;;;;;;;5020424;28;20100;-67
2023/01/06 13:08:47;;;;;;;37.72;22.88;;;;;;;;;;5022583;28;20026;-69
2023/01/06 13:11:13;;;;;;;41.85;23.23;;;;;;;;;;5021038;28;20018;-70
2023/01/06 13:13:49;;;;;;;31.55;23.02;;;;;;;;;;5023826;28;20014;-68